createdAt,value
2023-05-04T00:01:12.141Z,23.10
2023-05-04T00:03:13.976Z,23.10
2023-05-04T00:05:15.696Z,23.10
2023-05-04T00:07:17.664Z,23.10
2023-05-04T00:09:19.292Z,23.10
2023-05-04T00:11:21.077Z,23.10
2023-05-04T00:13:24.098Z,23.10
2023-05-04T00:15:25.905Z,23.10
2023-05-04T00:17:27.614Z,23.10
2023-05-04T00:19:29.306Z,23.10
2023-05-04T00:21:30.961Z,23.10
2023-05-04T00:23:32.683Z,23.10
2023-05-04T00:25:34.374Z,23.10
2023-05-04T00:27:36.079Z,23.10
2023-05-04T00:29:37.741Z,23.10
2023-05-04T00:31:39.432Z,23.10
2023-05-04T00:33:41.289Z,23.10
2023-05-04T00:35:43.031Z,23.10
2023-05-04T00:37:46.382Z,23.10
2023-05-04T00:39:48.081Z,23.00
2023-05-04T00:41:49.672Z,23.00
2023-05-04T00:43:51.573Z,23.00
2023-05-04T00:45:53.250Z,23.00
2023-05-04T00:47:55.478Z,23.10
2023-05-04T00:49:57.280Z,23.10
2023-05-04T00:52:01.354Z,23.00
2023-05-04T00:54:03.175Z,23.00
2023-05-04T00:56:07.439Z,23.00
2023-05-04T00:58:09.190Z,23.00
2023-05-04T01:00:13.231Z,23.00
2023-05-04T01:02:14.842Z,23.00
2023-05-04T01:04:16.861Z,23.00
2023-05-04T01:06:37.874Z,23.00
2023-05-04T01:08:45.688Z,23.00
2023-05-04T01:10:58.115Z,22.90
2023-05-04T01:13:01.530Z,22.90
2023-05-04T01:15:04.123Z,23.00
2023-05-04T01:17:07.325Z,22.90
2023-05-04T01:19:09.158Z,22.90
2023-05-04T01:21:11.013Z,23.00
2023-05-04T01:23:12.714Z,23.00
2023-05-04T01:25:14.600Z,22.90
2023-05-04T01:28:11.709Z,22.90
2023-05-04T01:30:25.558Z,22.90
2023-05-04T01:32:32.801Z,22.90
2023-05-04T01:34:36.872Z,22.90
2023-05-04T01:36:39.902Z,22.90
2023-05-04T01:38:42.195Z,22.90
2023-05-04T01:40:44.059Z,22.90
2023-05-04T01:42:45.712Z,22.90
2023-05-04T01:44:47.346Z,22.90
2023-05-04T01:46:49.010Z,22.90
2023-05-04T01:48:50.881Z,22.90
2023-05-04T01:50:52.496Z,22.90
2023-05-04T01:52:54.232Z,22.90
2023-05-04T01:54:55.933Z,22.90
2023-05-04T01:56:57.550Z,22.90
2023-05-04T01:58:59.230Z,22.90
2023-05-04T02:01:01.405Z,22.90
2023-05-04T02:03:03.170Z,22.90
2023-05-04T02:05:05.200Z,22.80
2023-05-04T02:07:07.342Z,22.90
2023-05-04T02:09:09.008Z,22.90
2023-05-04T02:11:11.139Z,22.90
2023-05-04T02:13:12.865Z,22.90
2023-05-04T02:15:14.854Z,22.80
2023-05-04T02:17:16.538Z,22.80
2023-05-04T02:19:18.225Z,22.80
2023-05-04T02:21:19.885Z,22.80
2023-05-04T02:23:21.528Z,22.90
2023-05-04T02:25:23.789Z,22.80
2023-05-04T02:27:25.722Z,22.80
2023-05-04T02:29:27.575Z,22.80
2023-05-04T02:31:29.703Z,22.80
2023-05-04T02:33:31.840Z,22.80
2023-05-04T02:35:33.505Z,22.80
2023-05-04T02:37:35.868Z,22.80
2023-05-04T02:39:37.536Z,22.80
2023-05-04T02:41:39.365Z,22.80
2023-05-04T02:43:41.014Z,22.80
2023-05-04T02:45:42.742Z,22.80
2023-05-04T02:47:44.499Z,22.80
2023-05-04T02:49:46.266Z,22.80
2023-05-04T02:51:47.918Z,22.80
2023-05-04T02:53:49.645Z,22.80
2023-05-04T02:55:51.349Z,22.70
2023-05-04T02:57:52.988Z,22.80
2023-05-04T02:59:54.635Z,22.80
2023-05-04T03:01:56.314Z,22.80
2023-05-04T03:03:57.991Z,22.80
2023-05-04T03:05:59.636Z,22.80
2023-05-04T03:08:01.236Z,22.80
2023-05-04T03:10:03.200Z,22.80
2023-05-04T03:12:05.873Z,22.80
2023-05-04T03:14:07.799Z,22.70
2023-05-04T03:16:09.474Z,22.70
2023-05-04T03:18:11.438Z,22.70
2023-05-04T03:20:13.625Z,22.70
2023-05-04T03:22:15.301Z,22.70
2023-05-04T03:24:18.255Z,22.70
2023-05-04T03:26:19.899Z,22.70
2023-05-04T03:28:21.552Z,22.70
2023-05-04T03:30:23.922Z,22.70
2023-05-04T03:32:26.370Z,22.70
2023-05-04T03:34:28.127Z,22.70
2023-05-04T03:36:30.302Z,22.70
2023-05-04T03:38:32.072Z,22.70
2023-05-04T03:40:34.287Z,22.70
2023-05-04T03:42:38.121Z,22.70
2023-05-04T03:44:39.814Z,22.70
2023-05-04T03:46:41.488Z,22.70
2023-05-04T03:48:43.121Z,22.70
2023-05-04T03:50:44.786Z,22.70
2023-05-04T03:52:46.462Z,22.70
2023-05-04T03:54:48.063Z,22.70
2023-05-04T03:56:49.743Z,22.70
2023-05-04T03:58:51.437Z,22.70
2023-05-04T04:00:53.044Z,22.70
2023-05-04T04:02:54.780Z,22.70
2023-05-04T04:04:56.522Z,22.70
2023-05-04T04:06:58.188Z,22.70
2023-05-04T04:08:59.986Z,22.70
2023-05-04T04:11:01.881Z,22.70
2023-05-04T04:13:03.714Z,22.70
2023-05-04T04:15:05.850Z,22.70
2023-05-04T04:17:08.296Z,22.70
2023-05-04T04:19:09.920Z,22.70
2023-05-04T04:21:11.755Z,22.70
2023-05-04T04:23:13.411Z,22.60
2023-05-04T04:25:15.092Z,22.70
2023-05-04T04:27:16.680Z,22.60
2023-05-04T04:29:18.344Z,22.70
2023-05-04T04:31:20.878Z,22.70
2023-05-04T04:33:22.551Z,22.60
2023-05-04T04:35:24.169Z,22.70
2023-05-04T04:37:25.815Z,22.70
2023-05-04T04:39:27.742Z,22.60
2023-05-04T04:41:29.444Z,22.70
2023-05-04T04:43:31.078Z,22.70
2023-05-04T04:45:33.884Z,22.70
2023-05-04T04:47:35.976Z,22.60
2023-05-04T04:49:38.119Z,22.70
2023-05-04T04:51:41.918Z,22.70
2023-05-04T04:53:43.607Z,22.70
2023-05-04T04:55:45.741Z,22.70
2023-05-04T04:57:47.455Z,22.70
2023-05-04T04:59:49.085Z,22.70
2023-05-04T05:01:50.985Z,22.70
2023-05-04T05:03:52.634Z,22.80
2023-05-04T05:05:55.615Z,22.80
2023-05-04T05:07:57.321Z,22.80
2023-05-04T05:09:59.305Z,22.80
2023-05-04T05:12:01.047Z,22.80
2023-05-04T05:14:02.693Z,22.80
2023-05-04T05:16:04.689Z,22.80
2023-05-04T05:18:06.849Z,22.80
2023-05-04T05:20:12.529Z,22.90
2023-05-04T05:22:14.348Z,22.90
2023-05-04T05:24:17.241Z,22.90
2023-05-04T05:26:18.892Z,22.80
2023-05-04T05:28:20.550Z,22.80
2023-05-04T05:30:22.202Z,22.80
2023-05-04T05:32:23.872Z,22.80
2023-05-04T05:34:25.555Z,22.80
2023-05-04T05:36:27.283Z,22.80
2023-05-04T05:38:28.939Z,22.90
2023-05-04T05:40:30.600Z,22.90
2023-05-04T05:42:32.223Z,22.90
2023-05-04T05:44:37.391Z,22.90
2023-05-04T05:46:39.304Z,22.90
2023-05-04T05:48:41.276Z,22.90
2023-05-04T05:50:42.886Z,22.90
2023-05-04T05:52:44.579Z,22.90
2023-05-04T05:54:46.549Z,22.90
2023-05-04T05:56:48.471Z,22.90
2023-05-04T05:58:53.049Z,22.80
2023-05-04T06:00:54.772Z,22.80
2023-05-04T06:02:56.542Z,22.90
2023-05-04T06:04:58.378Z,22.80
2023-05-04T06:07:00.026Z,22.90
2023-05-04T06:09:01.657Z,22.90
2023-05-04T06:11:03.292Z,22.80
2023-05-04T06:13:05.038Z,22.90
2023-05-04T06:15:07.413Z,22.90
2023-05-04T06:17:09.686Z,22.80
2023-05-04T06:19:11.588Z,22.80
2023-05-04T06:21:13.362Z,22.80
2023-05-04T06:23:15.797Z,22.80
2023-05-04T06:25:17.600Z,22.80
2023-05-04T06:27:19.288Z,22.80
2023-05-04T06:29:20.993Z,22.80
2023-05-04T06:31:24.128Z,22.80
2023-05-04T06:33:26.740Z,22.80
2023-05-04T06:35:29.743Z,22.80
2023-05-04T06:37:31.354Z,22.80
2023-05-04T06:39:33.299Z,22.80
2023-05-04T06:41:34.996Z,22.80
2023-05-04T06:43:38.604Z,22.80
2023-05-04T06:45:40.348Z,22.80
2023-05-04T06:47:42.329Z,22.80
2023-05-04T06:49:44.011Z,22.80
2023-05-04T06:51:45.818Z,22.80
2023-05-04T06:53:47.622Z,22.80
2023-05-04T06:55:49.344Z,22.80
2023-05-04T06:57:51.468Z,22.80
2023-05-04T06:59:53.730Z,22.80
2023-05-04T07:01:55.666Z,22.80
2023-05-04T07:03:58.922Z,22.80
2023-05-04T07:06:00.680Z,22.80
2023-05-04T07:08:02.466Z,22.80
2023-05-04T07:10:04.686Z,22.80
2023-05-04T07:12:06.495Z,22.80
2023-05-04T07:14:10.398Z,22.80
2023-05-04T07:16:12.289Z,22.80
2023-05-04T07:18:14.141Z,22.80
2023-05-04T07:20:15.972Z,22.80
2023-05-04T07:22:17.937Z,22.80
2023-05-04T07:24:19.576Z,22.80
2023-05-04T07:26:22.539Z,22.80
2023-05-04T07:28:24.293Z,22.80
2023-05-04T07:30:26.316Z,22.80
2023-05-04T07:32:28.177Z,22.80
2023-05-04T07:34:41.858Z,22.80
2023-05-04T07:36:46.464Z,22.80
2023-05-04T07:38:48.199Z,22.80
2023-05-04T07:40:49.830Z,22.80
2023-05-04T07:42:51.434Z,22.80
2023-05-04T07:44:53.282Z,22.90
2023-05-04T07:46:54.875Z,22.90
2023-05-04T07:48:56.508Z,22.80
2023-05-04T07:50:58.244Z,22.80
2023-05-04T07:52:59.936Z,22.90
2023-05-04T07:55:01.629Z,22.90
2023-05-04T07:57:03.872Z,22.90
2023-05-04T07:59:05.492Z,22.90
2023-05-04T08:01:07.190Z,22.90
2023-05-04T08:03:08.892Z,22.90
2023-05-04T08:05:10.677Z,22.90
2023-05-04T08:07:12.400Z,22.90
2023-05-04T08:09:14.047Z,22.90
2023-05-04T08:11:20.658Z,22.90
2023-05-04T08:13:22.721Z,22.90
2023-05-04T08:15:24.387Z,22.90
2023-05-04T08:17:26.127Z,22.90
2023-05-04T08:19:27.795Z,22.90
2023-05-04T08:21:29.577Z,22.90
2023-05-04T08:23:32.599Z,23.00
2023-05-04T08:25:34.314Z,22.90
2023-05-04T08:27:36.007Z,22.90
2023-05-04T08:29:37.977Z,22.90
2023-05-04T08:31:42.736Z,22.90
2023-05-04T08:33:46.114Z,23.00
2023-05-04T08:35:47.790Z,22.90
2023-05-04T08:37:49.417Z,22.90
2023-05-04T08:39:51.234Z,22.90
2023-05-04T08:41:53.370Z,23.00
2023-05-04T08:43:55.312Z,22.90
2023-05-04T08:45:57.087Z,23.00
2023-05-04T08:47:58.937Z,23.00
2023-05-04T08:50:00.924Z,23.00
2023-05-04T08:52:08.487Z,23.00
2023-05-04T08:54:10.899Z,23.00
2023-05-04T08:56:13.950Z,23.00
2023-05-04T08:58:17.922Z,23.00
2023-05-04T09:00:20.423Z,23.00
2023-05-04T09:02:23.932Z,23.00
2023-05-04T09:04:28.640Z,23.00
2023-05-04T09:06:32.262Z,23.00
2023-05-04T09:08:34.413Z,23.10
2023-05-04T09:10:36.975Z,23.00
2023-05-04T09:12:38.865Z,23.10
2023-05-04T09:14:41.464Z,23.00
2023-05-04T09:16:43.283Z,23.00
2023-05-04T09:18:45.811Z,23.00
2023-05-04T09:20:48.071Z,23.00
2023-05-04T09:23:06.841Z,23.00
2023-05-04T09:25:13.677Z,23.10
2023-05-04T09:27:17.868Z,23.00
2023-05-04T09:29:19.530Z,23.00
2023-05-04T09:31:21.205Z,23.10
2023-05-04T09:33:27.404Z,23.10
2023-05-04T09:35:33.497Z,23.00
2023-05-04T09:37:45.574Z,23.10
2023-05-04T09:40:06.018Z,23.10
2023-05-04T09:42:16.924Z,23.10
2023-05-04T09:44:23.633Z,23.10
2023-05-04T09:46:25.529Z,23.10
2023-05-04T09:48:29.040Z,23.20
2023-05-04T09:50:33.169Z,23.10
2023-05-04T09:52:35.050Z,23.20
2023-05-04T09:54:38.914Z,23.10
2023-05-04T09:56:46.075Z,23.20
2023-05-04T09:58:49.821Z,23.20
2023-05-04T10:00:53.652Z,23.20
2023-05-04T10:02:56.006Z,23.20
2023-05-04T10:04:58.726Z,23.20
2023-05-04T10:07:05.078Z,23.20
2023-05-04T10:09:07.548Z,23.30
2023-05-04T10:11:09.257Z,23.20
2023-05-04T10:13:11.019Z,23.30
2023-05-04T10:15:14.437Z,23.30
2023-05-04T10:17:34.380Z,23.30
2023-05-04T10:19:54.077Z,23.30
2023-05-04T10:21:58.459Z,23.30
2023-05-04T10:24:31.526Z,23.30
2023-05-04T10:27:10.267Z,23.40
2023-05-04T10:29:14.942Z,23.30
2023-05-04T10:31:17.883Z,23.40
2023-05-04T10:33:19.562Z,23.40
2023-05-04T10:35:21.733Z,23.40
2023-05-04T10:37:23.470Z,23.40
2023-05-04T10:39:27.009Z,23.40
2023-05-04T10:41:28.645Z,23.40
2023-05-04T10:43:30.480Z,23.50
2023-05-04T10:45:39.836Z,23.50
2023-05-04T10:47:41.884Z,23.50
2023-05-04T10:49:43.616Z,23.50
2023-05-04T10:51:49.435Z,23.50
2023-05-04T10:53:52.133Z,23.50
2023-05-04T10:55:54.364Z,23.50
2023-05-04T10:57:57.861Z,23.50
2023-05-04T10:59:59.752Z,23.50
2023-05-04T11:02:02.369Z,23.50
2023-05-04T11:04:04.178Z,23.60
2023-05-04T11:06:16.805Z,23.60
2023-05-04T11:08:26.101Z,23.60
2023-05-04T11:10:27.963Z,23.60
2023-05-04T11:12:29.949Z,23.60
2023-05-04T11:14:31.745Z,23.60
2023-05-04T11:16:33.502Z,23.60
2023-05-04T11:18:37.298Z,23.60
2023-05-04T11:20:39.094Z,23.60
2023-05-04T11:22:40.751Z,23.70
2023-05-04T11:24:44.862Z,23.60
2023-05-04T11:26:49.073Z,23.70
2023-05-04T11:28:51.139Z,23.70
2023-05-04T11:30:56.051Z,23.70
2023-05-04T11:33:00.152Z,23.70
2023-05-04T11:35:03.378Z,23.70
2023-05-04T11:37:06.417Z,23.70
2023-05-04T11:39:09.040Z,23.70
2023-05-04T11:41:12.056Z,23.70
2023-05-04T11:43:13.915Z,23.70
2023-05-04T11:45:29.008Z,23.70
2023-05-04T11:47:30.666Z,23.80
2023-05-04T11:49:32.433Z,23.70
2023-05-04T11:51:34.270Z,23.70
2023-05-04T11:53:40.607Z,23.70
2023-05-04T11:55:42.539Z,23.80
2023-05-04T11:57:44.158Z,23.80
2023-05-04T11:59:52.083Z,23.80
2023-05-04T12:01:53.914Z,23.80
2023-05-04T12:03:55.825Z,23.80
2023-05-04T12:05:58.688Z,23.80
2023-05-04T12:08:02.097Z,23.80
2023-05-04T12:10:03.816Z,23.80
2023-05-04T12:12:05.920Z,23.80
2023-05-04T12:14:13.751Z,23.80
2023-05-04T12:16:17.132Z,23.80
2023-05-04T12:18:29.618Z,23.80
2023-05-04T12:20:31.655Z,23.80
2023-05-04T12:22:35.153Z,23.80
2023-05-04T12:24:36.933Z,23.80
2023-05-04T12:26:38.600Z,23.80
2023-05-04T12:28:41.963Z,23.80
2023-05-04T12:30:43.589Z,23.80
2023-05-04T12:32:45.916Z,23.80
2023-05-04T12:34:47.895Z,23.80
2023-05-04T12:36:50.977Z,23.80
2023-05-04T12:38:52.843Z,23.80
2023-05-04T12:40:55.304Z,23.80
2023-05-04T12:42:56.889Z,23.90
2023-05-04T12:44:58.808Z,23.90
2023-05-04T12:47:00.539Z,23.90
2023-05-04T12:49:02.168Z,23.90
2023-05-04T12:51:04.897Z,23.90
2023-05-04T12:53:07.368Z,23.90
2023-05-04T12:55:09.328Z,23.90
2023-05-04T12:57:12.232Z,23.90
2023-05-04T12:59:13.890Z,23.90
2023-05-04T13:01:16.769Z,23.80
2023-05-04T13:03:18.823Z,23.90
2023-05-04T13:05:22.710Z,23.90
2023-05-04T13:07:24.375Z,23.90
2023-05-04T13:09:26.352Z,23.90
2023-05-04T13:11:28.445Z,23.90
2023-05-04T13:13:30.786Z,23.90
2023-05-04T13:15:33.269Z,23.90
2023-05-04T13:17:35.140Z,23.90
2023-05-04T13:19:36.853Z,23.90
2023-05-04T13:21:38.611Z,23.90
2023-05-04T13:23:40.229Z,23.90
2023-05-04T13:25:42.269Z,23.90
2023-05-04T13:27:44.117Z,23.90
2023-05-04T13:29:45.887Z,23.90
2023-05-04T13:31:47.617Z,23.90
2023-05-04T13:33:50.391Z,23.90
2023-05-04T13:35:52.140Z,23.90
2023-05-04T13:37:53.918Z,23.90
2023-05-04T13:39:56.299Z,23.90
2023-05-04T13:41:57.955Z,23.90
2023-05-04T13:43:59.616Z,23.90
2023-05-04T13:46:04.537Z,23.90
2023-05-04T13:48:06.239Z,23.90
2023-05-04T13:50:08.549Z,23.90
2023-05-04T13:52:10.622Z,23.90
2023-05-04T13:54:12.276Z,23.90
2023-05-04T13:56:13.944Z,23.90
2023-05-04T13:58:15.581Z,24.00
2023-05-04T14:00:18.085Z,23.90
2023-05-04T14:02:20.235Z,23.90
2023-05-04T14:04:22.745Z,23.90
2023-05-04T14:06:25.899Z,23.90
2023-05-04T14:08:27.548Z,23.90
2023-05-04T14:10:29.170Z,23.90
2023-05-04T14:12:30.832Z,23.90
2023-05-04T14:14:32.485Z,23.90
2023-05-04T14:16:35.511Z,23.90
2023-05-04T14:18:38.915Z,23.90
2023-05-04T14:20:40.533Z,23.90
2023-05-04T14:22:42.219Z,23.90
2023-05-04T14:24:43.868Z,23.90
2023-05-04T14:26:45.566Z,23.90
2023-05-04T14:28:48.134Z,23.90
2023-05-04T14:30:50.350Z,23.90
2023-05-04T14:32:58.341Z,23.90
2023-05-04T14:35:08.196Z,23.90
2023-05-04T14:37:10.225Z,23.90
2023-05-04T14:39:11.843Z,24.00
2023-05-04T14:41:14.212Z,23.90
2023-05-04T14:43:15.837Z,23.90
2023-05-04T14:45:17.764Z,24.00
2023-05-04T14:47:19.818Z,23.90
2023-05-04T14:49:35.859Z,23.90
2023-05-04T14:51:39.240Z,24.00
2023-05-04T14:53:41.231Z,24.00
2023-05-04T14:55:43.489Z,24.00
2023-05-04T14:57:45.199Z,24.00
2023-05-04T14:59:46.929Z,24.00
2023-05-04T15:01:48.856Z,23.90
2023-05-04T15:03:50.737Z,23.90
2023-05-04T15:05:52.545Z,24.00
2023-05-04T15:07:54.172Z,24.00
2023-05-04T15:09:55.937Z,24.00
2023-05-04T15:11:57.906Z,24.00
2023-05-04T15:13:59.594Z,24.00
2023-05-04T15:16:01.368Z,24.00
2023-05-04T15:18:03.087Z,24.00
2023-05-04T15:20:06.352Z,24.00
2023-05-04T15:22:08.208Z,24.00
2023-05-04T15:24:09.867Z,24.00
2023-05-04T15:26:11.447Z,24.00
2023-05-04T15:28:13.242Z,24.00
2023-05-04T15:30:15.184Z,24.00
2023-05-04T15:32:16.868Z,24.00
2023-05-04T15:34:18.782Z,24.00
2023-05-04T15:36:20.619Z,24.00
2023-05-04T15:38:22.214Z,24.00
2023-05-04T15:40:24.070Z,24.00
2023-05-04T15:42:25.821Z,24.00
2023-05-04T15:44:27.996Z,24.00
2023-05-04T15:46:29.669Z,24.00
2023-05-04T15:48:31.335Z,24.00
2023-05-04T15:50:33.609Z,24.00
2023-05-04T15:52:35.624Z,24.00
2023-05-04T15:54:37.273Z,24.00
2023-05-04T15:56:38.999Z,24.00
2023-05-04T15:58:41.306Z,24.00
2023-05-04T16:00:42.917Z,24.00
2023-05-04T16:02:44.734Z,23.90
2023-05-04T16:04:46.582Z,24.00
2023-05-04T16:06:48.366Z,24.00
2023-05-04T16:08:50.010Z,24.10
2023-05-04T16:10:53.303Z,24.10
2023-05-04T16:12:55.187Z,24.10
2023-05-04T16:14:56.936Z,24.20
2023-05-04T16:17:02.040Z,24.30
2023-05-04T16:19:03.760Z,24.30
2023-05-04T16:21:05.569Z,24.30
2023-05-04T16:23:07.187Z,24.30
2023-05-04T16:25:11.216Z,24.30
2023-05-04T16:27:13.186Z,24.30
2023-05-04T16:29:15.531Z,24.30
2023-05-04T16:31:17.211Z,24.30
2023-05-04T16:33:19.780Z,24.30
2023-05-04T16:35:21.615Z,24.30
2023-05-04T16:37:23.297Z,24.30
2023-05-04T16:39:31.783Z,24.30
2023-05-04T16:41:33.493Z,24.30
2023-05-04T16:43:35.085Z,24.30
2023-05-04T16:45:38.066Z,24.20
2023-05-04T16:47:43.543Z,24.20
2023-05-04T16:49:45.647Z,24.20
2023-05-04T16:51:47.516Z,24.10
2023-05-04T16:53:49.278Z,24.10
2023-05-04T16:55:50.913Z,24.10
2023-05-04T16:57:55.839Z,24.10
2023-05-04T16:59:57.498Z,24.10
2023-05-04T17:01:59.293Z,24.10
2023-05-04T17:04:01.666Z,24.10
2023-05-04T17:06:03.908Z,24.10
2023-05-04T17:08:05.692Z,24.10
2023-05-04T17:10:08.520Z,24.10
2023-05-04T17:12:10.306Z,24.10
2023-05-04T17:14:11.958Z,24.10
2023-05-04T17:16:13.622Z,24.10
2023-05-04T17:18:15.625Z,24.10
2023-05-04T17:20:17.337Z,24.20
2023-05-04T17:22:19.681Z,24.20
2023-05-04T17:24:21.371Z,24.20
2023-05-04T17:26:23.028Z,24.30
2023-05-04T17:28:24.639Z,24.30
2023-05-04T17:30:26.915Z,24.40
2023-05-04T17:32:29.557Z,24.40
2023-05-04T17:34:31.202Z,24.30
2023-05-04T17:36:32.866Z,24.20
2023-05-04T17:38:34.618Z,24.10
2023-05-04T17:40:36.239Z,24.10
2023-05-04T17:42:37.909Z,24.10
2023-05-04T17:44:39.577Z,24.10
2023-05-04T17:46:41.519Z,24.00
2023-05-04T17:48:44.532Z,24.10
2023-05-04T17:50:46.173Z,24.00
2023-05-04T17:52:55.234Z,24.00
2023-05-04T17:54:56.882Z,24.00
2023-05-04T17:56:58.488Z,24.00
2023-05-04T17:59:00.177Z,24.00
2023-05-04T18:01:02.329Z,24.00
2023-05-04T18:03:04.246Z,24.00
2023-05-04T18:05:06.508Z,24.00
2023-05-04T18:07:08.119Z,23.90
2023-05-04T18:09:09.844Z,24.00
2023-05-04T18:11:12.043Z,24.00
2023-05-04T18:13:13.807Z,24.00
2023-05-04T18:15:17.082Z,23.90
2023-05-04T18:17:18.726Z,24.00
2023-05-04T18:19:24.220Z,23.90
2023-05-04T18:21:27.720Z,24.00
2023-05-04T18:23:29.999Z,23.90
2023-05-04T18:25:31.779Z,23.90
2023-05-04T18:27:34.851Z,23.90
2023-05-04T18:29:36.457Z,23.90
2023-05-04T18:31:38.077Z,23.90
2023-05-04T18:33:39.720Z,23.90
2023-05-04T18:35:41.784Z,23.90
2023-05-04T18:37:43.569Z,23.90
2023-05-04T18:39:45.634Z,23.90
2023-05-04T18:41:47.286Z,23.90
2023-05-04T18:43:48.923Z,23.90
2023-05-04T18:45:50.643Z,23.90
2023-05-04T18:47:52.382Z,23.90
2023-05-04T18:49:56.018Z,23.90
2023-05-04T18:51:57.744Z,23.90
2023-05-04T18:53:59.447Z,23.90
2023-05-04T18:56:08.456Z,23.90
2023-05-04T18:58:10.104Z,23.90
2023-05-04T19:00:13.795Z,23.90
2023-05-04T19:02:16.059Z,23.90
2023-05-04T19:04:17.796Z,23.90
2023-05-04T19:06:19.426Z,23.90
2023-05-04T19:08:21.083Z,23.90
2023-05-04T19:10:22.680Z,23.90
2023-05-04T19:12:24.305Z,23.80
2023-05-04T19:14:30.002Z,23.90
2023-05-04T19:16:32.279Z,23.80
2023-05-04T19:18:34.489Z,23.80
2023-05-04T19:20:37.530Z,23.80
2023-05-04T19:22:39.187Z,23.80
2023-05-04T19:24:41.272Z,23.80
2023-05-04T19:26:43.277Z,23.80
2023-05-04T19:28:45.140Z,23.80
2023-05-04T19:30:46.786Z,23.80
2023-05-04T19:32:48.596Z,23.80
2023-05-04T19:34:50.254Z,23.80
2023-05-04T19:36:52.025Z,23.80
2023-05-04T19:38:53.908Z,23.80
2023-05-04T19:40:55.793Z,23.80
2023-05-04T19:42:57.461Z,23.80
2023-05-04T19:44:59.172Z,23.80
2023-05-04T19:47:00.973Z,23.80
2023-05-04T19:49:03.193Z,23.80
2023-05-04T19:51:04.907Z,23.80
2023-05-04T19:53:06.959Z,23.80
2023-05-04T19:55:09.255Z,23.80
2023-05-04T19:57:11.189Z,23.80
2023-05-04T19:59:12.998Z,23.80
2023-05-04T20:01:14.673Z,23.80
2023-05-04T20:03:17.052Z,23.80
2023-05-04T20:05:18.954Z,23.80
2023-05-04T20:07:20.625Z,23.80
2023-05-04T20:09:22.237Z,23.80
2023-05-04T20:11:23.939Z,23.70
2023-05-04T20:13:25.657Z,23.60
2023-05-04T20:15:27.348Z,23.50
2023-05-04T20:17:29.090Z,23.40
2023-05-04T20:19:31.004Z,23.30
2023-05-04T20:21:32.709Z,23.30
2023-05-04T20:23:34.497Z,23.20
2023-05-04T20:25:36.275Z,23.20
2023-05-04T20:27:38.435Z,23.20
2023-05-04T20:29:40.061Z,23.10
2023-05-04T20:31:41.701Z,23.10
2023-05-04T20:33:43.408Z,23.00
2023-05-04T20:35:45.285Z,23.00
2023-05-04T20:37:47.786Z,23.00
2023-05-04T20:39:52.610Z,22.90
2023-05-04T20:41:54.388Z,22.90
2023-05-04T20:43:55.986Z,22.90
2023-05-04T20:45:58.366Z,22.90
2023-05-04T20:48:01.085Z,22.80
2023-05-04T20:50:02.904Z,22.80
2023-05-04T20:52:04.843Z,22.70
2023-05-04T20:54:06.582Z,22.70
2023-05-04T20:56:08.274Z,22.80
2023-05-04T20:58:09.911Z,22.90
2023-05-04T21:00:12.273Z,23.00
2023-05-04T21:02:13.919Z,23.10
2023-05-04T21:04:15.570Z,23.10
2023-05-04T21:06:17.271Z,23.10
2023-05-04T21:08:18.948Z,23.10
2023-05-04T21:10:20.748Z,23.20
2023-05-04T21:12:22.431Z,23.20
2023-05-04T21:14:24.747Z,23.20
2023-05-04T21:16:26.437Z,23.20
2023-05-04T21:18:28.130Z,23.20
2023-05-04T21:20:29.849Z,23.20
2023-05-04T21:22:31.655Z,23.20
2023-05-04T21:24:33.489Z,23.20
2023-05-04T21:26:35.191Z,23.20
2023-05-04T21:28:36.848Z,23.20
2023-05-04T21:30:44.225Z,23.20
2023-05-04T21:32:46.072Z,23.20
2023-05-04T21:34:54.600Z,23.20
2023-05-04T21:36:56.636Z,23.20
2023-05-04T21:38:58.566Z,23.20
2023-05-04T21:41:13.319Z,23.20
2023-05-04T21:43:15.084Z,23.20
2023-05-04T21:45:16.693Z,23.20
2023-05-04T21:47:18.354Z,23.20
2023-05-04T21:49:20.453Z,23.20
2023-05-04T21:51:22.171Z,23.30
2023-05-04T21:53:23.812Z,23.20
2023-05-04T21:55:25.475Z,23.20
2023-05-04T21:57:27.593Z,23.20
2023-05-04T21:59:29.629Z,23.20
2023-05-04T22:01:31.281Z,23.20
2023-05-04T22:03:32.950Z,23.20
2023-05-04T22:05:34.752Z,23.20
2023-05-04T22:07:36.977Z,23.20
2023-05-04T22:09:38.874Z,23.20
2023-05-04T22:11:40.576Z,23.20
2023-05-04T22:13:42.178Z,23.20
2023-05-04T22:15:49.701Z,23.20
2023-05-04T22:17:52.140Z,23.20
2023-05-04T22:19:53.875Z,23.20
2023-05-04T22:21:55.552Z,23.20
2023-05-04T22:23:57.219Z,23.20
2023-05-04T22:25:58.916Z,23.20
2023-05-04T22:28:00.606Z,23.20
2023-05-04T22:30:02.274Z,23.20
2023-05-04T22:32:04.069Z,23.20
2023-05-04T22:34:05.823Z,23.20
2023-05-04T22:36:07.757Z,23.20
2023-05-04T22:38:09.474Z,23.20
2023-05-04T22:40:11.289Z,23.20
2023-05-04T22:42:13.019Z,23.20
2023-05-04T22:44:14.696Z,23.20
2023-05-04T22:46:19.378Z,23.20
2023-05-04T22:48:21.065Z,23.20
2023-05-04T22:50:22.835Z,23.20
2023-05-04T22:52:24.719Z,23.20
2023-05-04T22:54:26.658Z,23.20
2023-05-04T22:56:28.317Z,23.20
2023-05-04T22:58:29.977Z,23.20
2023-05-04T23:00:32.426Z,23.20
2023-05-04T23:02:34.167Z,23.20
2023-05-04T23:04:35.809Z,23.20
2023-05-04T23:06:38.558Z,23.20
2023-05-04T23:08:40.233Z,23.20
2023-05-04T23:10:48.285Z,23.20
2023-05-04T23:12:50.044Z,23.20
2023-05-04T23:14:52.396Z,23.20
2023-05-04T23:16:54.115Z,23.20
2023-05-04T23:18:55.950Z,23.20
2023-05-04T23:20:57.556Z,23.20
2023-05-04T23:22:59.211Z,23.20
2023-05-04T23:25:01.283Z,23.10
2023-05-04T23:27:03.155Z,23.10
2023-05-04T23:29:04.847Z,23.10
2023-05-04T23:31:06.510Z,23.20
2023-05-04T23:33:08.316Z,23.20
2023-05-04T23:35:10.137Z,23.10
2023-05-04T23:37:11.770Z,23.10
2023-05-04T23:39:13.466Z,23.10
2023-05-04T23:41:15.153Z,23.10
2023-05-04T23:43:16.938Z,23.10
2023-05-04T23:45:18.630Z,23.10
2023-05-04T23:47:20.561Z,23.10
2023-05-04T23:49:22.230Z,23.10
2023-05-04T23:51:23.926Z,23.10
2023-05-04T23:53:28.712Z,23.10
2023-05-04T23:55:30.364Z,23.10
2023-05-04T23:57:31.962Z,23.10
2023-05-04T23:59:33.569Z,23.10
